Time;durP1;ratioP1;P1;durP2;ratioP2;P2;SDS_P1;SDS_P2;PMS_P1;PMS_P2;Temp;Humidity;BMP_temperature;BMP_pressure;BME280_temperature;BME280_humidity;BME280_pressure;Samples;Min_cycle;Max_cycle;Signal;HPM_P1;HPM_P2
2023/04/18 00:01:44;;;;;;;;;;;;;;;6.02;38.23;102279.34;10533672;28;19927;-78
2023/04/18 00:06:48;;;;;;;;;;;;;;;5.96;37.74;102273.94;10487550;28;20120;-78
2023/04/18 00:11:50;;;;;;;;;;;;;;;5.89;38.48;102278.50;10541128;28;20318;-78
2023/04/18 00:16:52;;;;;;;;;;;;;;;5.95;38.59;102277.69;10541277;28;19920;-79
2023/04/18 00:21:54;;;;;;;;;;;;;;;5.94;38.56;102278.75;10517596;28;19962;-79
2023/04/18 00:26:57;;;;;;;;;;;;;;;5.78;39.89;102276.41;10560997;28;19924;-79
2023/04/18 00:31:59;;;;;;;;;;;;;;;5.68;40.61;102276.81;10524000;28;19927;-79
2023/04/18 00:37:01;;;;;;;;;;;;;;;5.50;40.54;102285.59;10525813;28;19919;-79
2023/04/18 00:42:03;;;;;;;;;;;;;;;5.41;40.05;102281.41;10571733;28;19919;-79
2023/04/18 00:47:05;;;;;;;;;;;;;;;5.35;41.11;102284.94;10482956;28;19950;-79
2023/04/18 00:52:08;;;;;;;;;;;;;;;5.14;41.30;102286.78;10492066;28;20303;-79
2023/04/18 00:57:10;;;;;;;;;;;;;;;4.95;41.54;102298.44;10496829;28;20019;-79
2023/04/18 01:02:12;;;;;;;;;;;;;;;4.73;42.39;102292.28;10524474;28;20370;-79
2023/04/18 01:07:15;;;;;;;;;;;;;;;4.48;42.91;102291.91;10540777;28;19916;-79
2023/04/18 01:12:17;;;;;;;;;;;;;;;4.21;43.77;102292.81;10561803;28;19920;-79
2023/04/18 01:17:19;;;;;;;;;;;;;;;4.02;44.66;102297.06;10514912;28;19920;-79
2023/04/18 01:22:21;;;;;;;;;;;;;;;3.89;44.54;102296.94;10498141;28;19920;-79
2023/04/18 01:27:23;;;;;;;;;;;;;;;3.90;44.82;102304.06;10485594;28;20311;-79
2023/04/18 01:32:25;;;;;;;;;;;;;;;3.85;45.00;102301.09;10494496;28;19942;-79
2023/04/18 01:37:26;;;;;;;;;;;;;;;3.77;45.74;102293.91;10533686;28;19925;-79
2023/04/18 01:42:28;;;;;;;;;;;;;;;3.54;46.17;102298.72;10531648;28;19920;-79
2023/04/18 01:47:30;;;;;;;;;;;;;;;3.43;47.28;102285.66;10497593;28;19920;-79
2023/04/18 01:52:32;;;;;;;;;;;;;;;3.28;47.20;102283.84;10527782;28;19951;-79
2023/04/18 01:57:35;;;;;;;;;;;;;;;3.29;47.32;102292.81;10536344;28;19920;-79
2023/04/18 02:02:38;;;;;;;;;;;;;;;3.23;47.04;102280.88;10525178;28;19921;-79
2023/04/18 02:07:41;;;;;;;;;;;;;;;3.45;46.43;102283.59;10512718;28;19926;-79
2023/04/18 02:12:43;;;;;;;;;;;;;;;3.40;46.94;102286.06;10526292;28;20303;-78
2023/04/18 02:17:45;;;;;;;;;;;;;;;3.45;46.16;102275.44;10513155;28;19979;-78
2023/04/18 02:22:47;;;;;;;;;;;;;;;3.37;46.03;102281.84;10511969;28;19931;-78
2023/04/18 02:27:49;;;;;;;;;;;;;;;3.41;45.39;102276.88;10480481;28;19927;-79
2023/04/18 02:32:51;;;;;;;;;;;;;;;3.39;44.87;102278.94;10508639;28;20315;-78
2023/04/18 02:37:53;;;;;;;;;;;;;;;3.45;44.35;102273.56;10500068;28;19924;-78
2023/04/18 02:42:55;;;;;;;;;;;;;;;3.44;44.47;102282.75;10511629;28;20280;-78
2023/04/18 02:47:57;;;;;;;;;;;;;;;3.33;45.54;102275.16;10497862;28;19924;-78
2023/04/18 02:52:59;;;;;;;;;;;;;;;3.31;46.95;102277.22;10505906;28;19927;-79
2023/04/18 02:58:10;;;;;;;;;;;;;;;3.21;47.87;102282.94;10485078;28;19927;-79
2023/04/18 03:03:34;;;;;;;;;;;;;;;3.18;47.75;102279.78;10522921;28;19920;-79
2023/04/18 03:08:59;;;;;;;;;;;;;;;3.11;48.27;102285.13;10479450;28;19916;-79
2023/04/18 03:14:01;;;;;;;;;;;;;;;3.11;48.38;102290.53;10503829;28;19926;-79
2023/04/18 03:19:11;;;;;;;;;;;;;;;3.21;47.82;102292.94;10494090;28;20327;-79
2023/04/18 03:24:13;;;;;;;;;;;;;;;3.53;47.70;102297.88;10470781;28;19928;-79
2023/04/18 03:29:17;;;;;;;;;;;;;;;4.04;46.84;102289.56;10485246;28;19924;-79
2023/04/18 03:34:21;;;;;;;;;;;;;;;4.55;46.07;102294.69;10474818;28;19930;-79
2023/04/18 03:39:24;;;;;;;;;;;;;;;4.72;46.60;102287.03;10469234;28;19920;-79
2023/04/18 03:44:27;;;;;;;;;;;;;;;4.78;46.61;102291.66;10513115;28;19931;-79
2023/04/18 03:49:29;;;;;;;;;;;;;;;4.92;45.67;102295.28;10506731;28;20299;-79
2023/04/18 03:54:32;;;;;;;;;;;;;;;5.30;44.42;102292.88;10527551;28;19920;-78
2023/04/18 03:59:34;;;;;;;;;;;;;;;5.74;43.41;102301.34;10550973;28;19927;-79
2023/04/18 04:04:37;;;;;;;;;;;;;;;5.80;42.82;102312.44;10499564;28;20294;-79
2023/04/18 04:09:38;;;;;;;;;;;;;;;5.88;43.16;102306.78;10524420;28;19919;-79
2023/04/18 04:14:41;;;;;;;;;;;;;;;6.07;43.00;102311.41;10515638;28;19938;-78
2023/04/18 04:19:44;;;;;;;;;;;;;;;6.62;42.66;102312.81;10521718;28;20388;-78
2023/04/18 04:24:50;;;;;;;;;;;;;;;7.29;40.46;102313.41;10557665;28;19927;-79
2023/04/18 04:30:01;;;;;;;;;;;;;;;7.57;40.43;102313.00;10541619;28;19920;-79
2023/04/18 04:35:04;;;;;;;;;;;;;;;7.67;39.84;102305.16;10547366;28;20295;-79
2023/04/18 04:40:10;;;;;;;;;;;;;;;7.87;38.32;102305.03;10509682;28;19928;-79
2023/04/18 04:45:28;;;;;;;;;;;;;;;7.91;37.84;102311.72;10524275;28;19932;-79
2023/04/18 04:50:32;;;;;;;;;;;;;;;8.14;37.79;102302.88;10520295;28;19920;-79
2023/04/18 04:55:34;;;;;;;;;;;;;;;8.43;37.17;102304.13;10557769;28;19927;-79
2023/04/18 05:00:37;;;;;;;;;;;;;;;8.58;36.29;102301.00;10541155;28;19916;-80
2023/04/18 05:05:39;;;;;;;;;;;;;;;8.60;36.27;102298.88;10509933;28;19920;-80
2023/04/18 05:10:42;;;;;;;;;;;;;;;9.43;35.24;102299.09;10494291;28;20294;-80
2023/04/18 05:15:44;;;;;;;;;;;;;;;10.00;32.83;102293.13;10493644;28;19927;-80
2023/04/18 05:20:45;;;;;;;;;;;;;;;9.97;33.29;102289.78;10520089;28;20406;-80
2023/04/18 05:25:47;;;;;;;;;;;;;;;9.93;33.15;102294.09;10523105;28;19920;-79
2023/04/18 05:30:49;;;;;;;;;;;;;;;9.99;32.37;102297.78;10494788;28;19920;-80
2023/04/18 05:35:51;;;;;;;;;;;;;;;10.23;32.24;102295.91;10573146;28;20305;-80
2023/04/18 05:40:54;;;;;;;;;;;;;;;9.80;31.61;102293.47;10574037;28;19919;-80
2023/04/18 05:45:56;;;;;;;;;;;;;;;9.55;32.31;102296.41;10551064;28;19927;-80
2023/04/18 05:50:58;;;;;;;;;;;;;;;9.74;31.79;102292.50;10531092;28;19926;-80
2023/04/18 05:56:00;;;;;;;;;;;;;;;10.01;32.71;102292.88;10514107;28;20397;-80
2023/04/18 06:01:02;;;;;;;;;;;;;;;10.53;32.33;102296.63;10475553;28;20268;-80
2023/04/18 06:06:04;;;;;;;;;;;;;;;11.01;31.15;102295.47;10513445;28;19921;-80
2023/04/18 06:11:07;;;;;;;;;;;;;;;11.36;30.97;102299.97;10516410;28;19927;-78
2023/04/18 06:16:09;;;;;;;;;;;;;;;11.97;29.46;102296.41;10537889;28;19924;-79
2023/04/18 06:21:12;;;;;;;;;;;;;;;11.99;29.66;102296.19;10478384;28;19966;-80
2023/04/18 06:26:13;;;;;;;;;;;;;;;12.23;29.16;102297.66;10488420;28;19920;-80
2023/04/18 06:31:16;;;;;;;;;;;;;;;12.58;28.81;102296.53;10484811;28;19927;-80
2023/04/18 06:36:18;;;;;;;;;;;;;;;12.99;28.14;102295.97;10566318;28;20371;-80
2023/04/18 06:41:19;;;;;;;;;;;;;;;13.39;27.90;102299.50;10511046;28;19924;-80
2023/04/18 06:46:22;;;;;;;;;;;;;;;13.07;28.22;102307.63;10511123;28;19920;-80
2023/04/18 06:51:23;;;;;;;;;;;;;;;13.29;27.89;102300.22;10511733;28;19920;-80
2023/04/18 06:56:25;;;;;;;;;;;;;;;13.23;28.04;102302.09;10530961;28;19919;-80
2023/04/18 07:01:29;;;;;;;;;;;;;;;14.30;27.50;102300.28;10529361;28;19927;-83
2023/04/18 07:06:31;;;;;;;;;;;;;;;14.17;28.02;102300.75;10551819;28;20307;-82
2023/04/18 07:11:33;;;;;;;;;;;;;;;14.22;27.23;102302.69;10550853;28;19943;-81
2023/04/18 07:16:35;;;;;;;;;;;;;;;14.42;27.16;102305.63;10513265;28;19920;-81
2023/04/18 07:21:39;;;;;;;;;;;;;;;15.15;26.73;102309.34;10528129;28;19916;-79
2023/04/18 07:26:41;;;;;;;;;;;;;;;15.75;25.56;102299.53;10529668;28;19916;-82
2023/04/18 07:31:43;;;;;;;;;;;;;;;15.87;25.87;102308.41;10520874;28;19920;-80
2023/04/18 07:36:45;;;;;;;;;;;;;;;16.45;24.31;102308.91;10570757;28;19926;-82
2023/04/18 07:41:47;;;;;;;;;;;;;;;16.67;24.63;102321.66;10570849;28;19926;-80
2023/04/18 07:46:49;;;;;;;;;;;;;;;15.85;24.65;102310.63;10547893;28;19922;-82
2023/04/18 07:51:51;;;;;;;;;;;;;;;15.91;24.63;102315.03;10522469;28;19926;-82
2023/04/18 07:56:52;;;;;;;;;;;;;;;15.84;24.35;102317.25;10529208;28;19920;-82
2023/04/18 08:01:54;;;;;;;;;;;;;;;15.69;23.89;102311.72;10536202;28;19924;-83
2023/04/18 08:06:56;;;;;;;;;;;;;;;15.65;23.93;102311.44;10488077;28;20304;-83
2023/04/18 08:11:58;;;;;;;;;;;;;;;15.34;23.53;102315.19;10493457;28;20015;-84
2023/04/18 08:17:00;;;;;;;;;;;;;;;15.89;22.57;102308.97;10552628;28;19926;-84
2023/04/18 08:22:06;;;;;;;;;;;;;;;15.37;21.97;102312.72;10536410;28;19988;-83
2023/04/18 08:27:17;;;;;;;;;;;;;;;14.75;22.99;102316.34;10512007;28;19926;-87
2023/04/18 08:32:22;;;;;;;;;;;;;;;14.23;22.31;102319.03;10516003;28;20252;-83
2023/04/18 08:37:26;;;;;;;;;;;;;;;14.19;23.23;102317.88;10506202;28;19921;-84
2023/04/18 08:42:28;;;;;;;;;;;;;;;14.30;23.29;102310.50;10489048;28;20384;-85
2023/04/18 08:47:31;;;;;;;;;;;;;;;14.64;23.52;102316.56;10548430;28;20022;-85
2023/04/18 08:52:33;;;;;;;;;;;;;;;14.54;24.17;102311.78;10512610;28;20304;-83
2023/04/18 08:57:35;;;;;;;;;;;;;;;14.79;24.09;102319.41;10519973;28;20014;-83
2023/04/18 09:02:42;;;;;;;;;;;;;;;14.91;23.53;102321.94;10518657;28;20018;-80
2023/04/18 09:07:44;;;;;;;;;;;;;;;14.48;22.78;102327.50;10530909;28;20393;-80
2023/04/18 09:12:49;;;;;;;;;;;;;;;13.84;23.76;102335.78;10562495;28;19920;-80
2023/04/18 09:17:52;;;;;;;;;;;;;;;13.08;24.03;102347.88;10535205;28;19928;-80
2023/04/18 09:22:56;;;;;;;;;;;;;;;12.53;25.39;102354.28;10543451;28;19922;-81
2023/04/18 09:28:00;;;;;;;;;;;;;;;12.37;25.12;102343.03;10562015;28;19920;-80
2023/04/18 09:33:03;;;;;;;;;;;;;;;12.34;25.59;102351.81;10559199;28;19920;-81
2023/04/18 09:38:06;;;;;;;;;;;;;;;12.37;26.21;102354.06;10547331;28;19926;-80
2023/04/18 09:43:16;;;;;;;;;;;;;;;12.07;25.87;102354.38;10545014;28;20003;-81
2023/04/18 09:48:18;;;;;;;;;;;;;;;11.81;26.92;102373.44;10520867;28;19950;-79
2023/04/18 09:53:20;;;;;;;;;;;;;;;11.72;28.67;102365.56;10494213;28;19925;-80
2023/04/18 09:58:22;;;;;;;;;;;;;;;11.73;27.94;102382.88;10490701;28;20023;-80
2023/04/18 10:03:25;;;;;;;;;;;;;;;11.52;29.01;102387.16;10470915;28;19947;-80
2023/04/18 10:08:27;;;;;;;;;;;;;;;11.51;28.59;102382.75;10506997;28;19927;-83
2023/04/18 10:13:29;;;;;;;;;;;;;;;11.21;28.34;102388.44;10511925;28;19950;-81
2023/04/18 10:18:31;;;;;;;;;;;;;;;11.14;27.87;102377.59;10529117;28;20329;-81
2023/04/18 10:23:36;;;;;;;;;;;;;;;11.11;27.06;102404.72;10528739;28;20236;-81
2023/04/18 10:28:47;;;;;;;;;;;;;;;11.02;27.79;102395.19;10509903;28;19928;-80
2023/04/18 10:33:59;;;;;;;;;;;;;;;11.10;27.12;102392.03;10495893;28;19920;-80
2023/04/18 10:39:02;;;;;;;;;;;;;;;10.85;26.00;102400.56;10495252;28;20562;-81
2023/04/18 10:44:11;;;;;;;;;;;;;;;10.74;25.66;102394.00;10476401;28;19927;-82
2023/04/18 10:49:22;;;;;;;;;;;;;;;10.92;25.29;102400.44;10529332;28;20315;-82
2023/04/18 10:54:30;;;;;;;;;;;;;;;10.90;25.81;102414.41;10512181;28;19940;-81
2023/04/18 10:59:33;;;;;;;;;;;;;;;10.96;26.23;102399.72;10528902;28;19920;-80
2023/04/18 11:04:35;;;;;;;;;;;;;;;11.14;25.12;102399.59;10480284;28;19929;-81
2023/04/18 11:09:37;;;;;;;;;;;;;;;11.07;25.89;102401.59;10506726;28;19928;-81
2023/04/18 11:14:42;;;;;;;;;;;;;;;11.06;25.48;102399.94;10528310;28;19920;-81
2023/04/18 11:19:45;;;;;;;;;;;;;;;11.01;25.37;102399.84;10510783;28;19920;-80
2023/04/18 11:24:47;;;;;;;;;;;;;;;11.02;26.03;102400.66;10492005;28;19920;-81
2023/04/18 11:29:51;;;;;;;;;;;;;;;11.17;24.70;102407.34;10528181;28;19957;-82
2023/04/18 11:34:53;;;;;;;;;;;;;;;11.25;25.04;102406.13;10492971;28;20384;-80
2023/04/18 11:39:55;;;;;;;;;;;;;;;11.25;24.70;102406.13;10488133;28;19916;-81
2023/04/18 11:44:57;;;;;;;;;;;;;;;11.17;24.20;102412.84;10444861;28;19920;-81
2023/04/18 11:50:04;;;;;;;;;;;;;;;11.05;24.65;102411.19;10468891;28;19916;-83
2023/04/18 11:55:25;;;;;;;;;;;;;;;11.14;24.06;102426.22;10486556;28;19939;-82
2023/04/18 12:00:37;;;;;;;;;;;;;;;11.03;23.75;102424.31;10487924;28;19966;-80
2023/04/18 12:05:40;;;;;;;;;;;;;;;10.77;24.30;102425.66;10514724;28;19920;-81
2023/04/18 12:10:46;;;;;;;;;;;;;;;10.65;23.99;102427.56;10523371;28;19920;-81
2023/04/18 12:15:48;;;;;;;;;;;;;;;10.59;23.65;102412.88;10473375;28;19920;-81
2023/04/18 12:20:53;;;;;;;;;;;;;;;10.54;23.89;102427.28;10495970;28;20364;-81
2023/04/18 12:26:00;;;;;;;;;;;;;;;10.37;24.80;102431.81;10540074;28;19927;-80
2023/04/18 12:31:04;;;;;;;;;;;;;;;10.29;23.93;102437.66;10531395;28;19920;-80
2023/04/18 12:36:09;;;;;;;;;;;;;;;10.34;24.29;102448.75;10522255;28;19924;-82
2023/04/18 12:41:11;;;;;;;;;;;;;;;10.34;24.89;102429.53;10497939;28;19930;-82
2023/04/18 12:46:13;;;;;;;;;;;;;;;10.36;25.31;102435.63;10508117;28;20019;-85
2023/04/18 12:51:15;;;;;;;;;;;;;;;10.34;25.57;102437.78;10494864;28;20322;-81
2023/04/18 12:56:17;;;;;;;;;;;;;;;10.49;25.55;102427.19;10488835;28;19920;-81
2023/04/18 13:01:19;;;;;;;;;;;;;;;10.27;24.65;102448.88;10480738;28;19916;-82
2023/04/18 13:06:23;;;;;;;;;;;;;;;10.25;25.83;102444.69;10493145;28;19920;-81
2023/04/18 13:11:27;;;;;;;;;;;;;;;10.38;25.62;102430.75;10543521;28;19923;-81
2023/04/18 13:16:29;;;;;;;;;;;;;;;10.42;25.62;102442.09;10484662;28;19920;-84
2023/04/18 13:21:31;;;;;;;;;;;;;;;10.30;25.74;102464.03;10523475;28;19920;-80
2023/04/18 13:26:34;;;;;;;;;;;;;;;10.22;24.96;102456.09;10535828;28;20006;-81
2023/04/18 13:31:36;;;;;;;;;;;;;;;10.19;25.56;102451.91;10510758;28;20298;-81
2023/04/18 13:36:38;;;;;;;;;;;;;;;10.24;25.29;102449.34;10536392;28;19964;-82
2023/04/18 13:41:40;;;;;;;;;;;;;;;10.24;25.47;102464.97;10583139;28;20287;-85
2023/04/18 13:46:42;;;;;;;;;;;;;;;10.09;25.17;102457.13;10533345;28;19927;-81
2023/04/18 13:51:45;;;;;;;;;;;;;;;10.20;26.12;102450.81;10517439;28;19920;-82
2023/04/18 13:56:47;;;;;;;;;;;;;;;10.17;25.64;102447.72;10492977;28;19926;-84
2023/04/18 14:01:50;;;;;;;;;;;;;;;10.15;25.28;102455.34;10535681;28;19922;-82
2023/04/18 14:06:52;;;;;;;;;;;;;;;10.14;25.99;102470.13;10497541;28;19931;-86
2023/04/18 14:11:54;;;;;;;;;;;;;;;10.12;25.48;102464.06;10545285;28;19916;-83
2023/04/18 14:16:57;;;;;;;;;;;;;;;10.07;25.62;102451.06;10546451;28;20414;-80
2023/04/18 14:21:59;;;;;;;;;;;;;;;10.03;25.73;102457.22;10528872;28;19939;-80
2023/04/18 14:27:03;;;;;;;;;;;;;;;9.88;25.39;102458.47;10529620;28;19931;-81
2023/04/18 14:32:05;;;;;;;;;;;;;;;9.84;25.22;102451.78;10503104;28;20032;-81
2023/04/18 14:37:39;;;;;;;;;;;;;;;9.83;25.28;102462.97;10548507;28;19920;-81
2023/04/18 14:42:44;;;;;;;;;;;;;;;9.87;25.26;102461.44;10543500;28;19959;-84
2023/04/18 14:47:46;;;;;;;;;;;;;;;9.88;26.13;102466.69;10490863;28;19920;-80
2023/04/18 14:52:48;;;;;;;;;;;;;;;9.94;25.33;102498.69;10535631;28;19916;-80
2023/04/18 14:57:50;;;;;;;;;;;;;;;9.79;25.27;102483.72;10529304;28;19920;-80
2023/04/18 15:02:52;;;;;;;;;;;;;;;9.72;25.56;102466.50;10549994;28;20290;-79
2023/04/18 15:07:54;;;;;;;;;;;;;;;9.60;26.00;102489.22;10530133;28;19926;-83
2023/04/18 15:12:56;;;;;;;;;;;;;;;9.67;26.10;102475.41;10534547;28;20303;-81
2023/04/18 15:17:58;;;;;;;;;;;;;;;9.63;25.72;102485.16;10532699;28;19926;-81
2023/04/18 15:23:01;;;;;;;;;;;;;;;9.53;24.85;102484.84;10550585;28;20019;-83
2023/04/18 15:28:03;;;;;;;;;;;;;;;9.45;25.13;102482.44;10551683;28;19959;-81
2023/04/18 15:33:05;;;;;;;;;;;;;;;9.45;24.44;102496.13;10508957;28;19920;-84
2023/04/18 15:38:07;;;;;;;;;;;;;;;9.43;24.04;102479.94;10452035;28;19924;-83
2023/04/18 15:43:09;;;;;;;;;;;;;;;9.36;24.11;102470.94;10462983;28;19975;-85
2023/04/18 15:48:12;;;;;;;;;;;;;;;9.35;23.76;102494.75;10486559;28;20525;-81
2023/04/18 15:53:13;;;;;;;;;;;;;;;9.33;24.21;102480.44;10490470;28;19920;-83
2023/04/18 15:58:16;;;;;;;;;;;;;;;9.32;24.34;102489.72;10493145;28;19924;-83
2023/04/18 16:03:18;;;;;;;;;;;;;;;9.29;24.18;102490.19;10478844;28;21615;-81
2023/04/18 16:08:20;;;;;;;;;;;;;;;9.26;24.07;102484.34;10492068;28;19963;-80
2023/04/18 16:13:22;;;;;;;;;;;;;;;9.29;24.35;102489.34;10471642;28;20587;-82
2023/04/18 16:18:24;;;;;;;;;;;;;;;9.31;23.54;102488.06;10497589;28;19920;-81
2023/04/18 16:23:28;;;;;;;;;;;;;;;9.24;23.74;102497.44;10521027;28;19916;-84
2023/04/18 16:28:30;;;;;;;;;;;;;;;9.20;23.72;102496.19;10522129;28;20419;-83
2023/04/18 16:33:32;;;;;;;;;;;;;;;9.17;23.39;102502.97;10532660;28;19925;-83
2023/04/18 16:38:34;;;;;;;;;;;;;;;9.09;24.10;102503.25;10514844;28;19927;-83
2023/04/18 16:43:36;;;;;;;;;;;;;;;9.02;23.22;102494.25;10535901;28;19920;-82
2023/04/18 16:48:40;;;;;;;;;;;;;;;8.93;23.98;102501.09;10502708;28;19920;-83
2023/04/18 16:53:43;;;;;;;;;;;;;;;8.84;23.90;102502.44;10555785;28;19931;-83
2023/04/18 16:58:45;;;;;;;;;;;;;;;8.77;24.19;102497.03;10520004;28;19927;-83
2023/04/18 17:03:47;;;;;;;;;;;;;;;8.63;25.45;102507.22;10522446;28;19924;-84
2023/04/18 17:08:52;;;;;;;;;;;;;;;8.61;25.27;102514.00;10540480;28;19927;-83
2023/04/18 17:13:54;;;;;;;;;;;;;;;8.53;25.52;102508.81;10500043;28;19935;-83
2023/04/18 17:18:56;;;;;;;;;;;;;;;8.43;26.04;102512.03;10521264;28;19924;-86
2023/04/18 17:24:02;;;;;;;;;;;;;;;8.42;25.66;102516.66;10479339;28;20383;-81
2023/04/18 17:29:04;;;;;;;;;;;;;;;8.25;26.35;102511.91;10499293;28;19916;-81
2023/04/18 17:34:06;;;;;;;;;;;;;;;8.10;26.20;102518.50;10514190;28;20319;-80
2023/04/18 17:39:08;;;;;;;;;;;;;;;8.11;26.54;102522.06;10542104;28;20010;-81
2023/04/18 17:44:10;;;;;;;;;;;;;;;8.01;27.25;102522.56;10536583;28;20381;-83
2023/04/18 17:49:12;;;;;;;;;;;;;;;7.98;26.49;102519.41;10525398;28;19979;-82
2023/04/18 17:54:14;;;;;;;;;;;;;;;7.91;27.25;102519.44;10491182;28;19920;-81
2023/04/18 17:59:16;;;;;;;;;;;;;;;7.73;27.70;102517.41;10523835;28;19920;-84
2023/04/18 18:04:18;;;;;;;;;;;;;;;7.60;28.31;102522.09;10513620;28;20008;-83
2023/04/18 18:09:20;;;;;;;;;;;;;;;7.53;28.29;102533.03;10543175;28;19916;-82
2023/04/18 18:14:22;;;;;;;;;;;;;;;7.40;28.12;102522.16;10485902;28;20007;-83
2023/04/18 18:19:24;;;;;;;;;;;;;;;7.39;29.08;102531.41;10492696;28;19919;-82
2023/04/18 18:24:26;;;;;;;;;;;;;;;7.31;28.64;102531.63;10529266;28;19929;-81
2023/04/18 18:29:28;;;;;;;;;;;;;;;7.16;28.86;102531.88;10495164;28;19921;-81
2023/04/18 18:34:30;;;;;;;;;;;;;;;7.07;29.25;102538.59;10502418;28;19927;-85
2023/04/18 18:39:32;;;;;;;;;;;;;;;6.89;29.41;102537.34;10511083;28;19920;-83
2023/04/18 18:44:34;;;;;;;;;;;;;;;6.75;30.11;102541.09;10489745;28;20011;-85
2023/04/18 18:49:42;;;;;;;;;;;;;;;6.66;30.22;102550.56;10488776;28;19921;-82
2023/04/18 18:54:44;;;;;;;;;;;;;;;6.57;30.83;102540.88;10496340;28;20387;-84
2023/04/18 18:59:50;;;;;;;;;;;;;;;6.47;31.30;102552.22;10527078;28;20296;-83
2023/04/18 19:04:51;;;;;;;;;;;;;;;6.46;30.88;102545.09;10486546;28;20253;-81
2023/04/18 19:09:54;;;;;;;;;;;;;;;6.31;31.58;102545.25;10501748;28;19999;-81
2023/04/18 19:14:56;;;;;;;;;;;;;;;6.31;31.69;102553.44;10525780;28;19916;-83
2023/04/18 19:20:00;;;;;;;;;;;;;;;6.24;31.73;102558.00;10508209;28;20295;-82
2023/04/18 19:25:07;;;;;;;;;;;;;;;6.15;32.57;102559.25;10519117;28;19925;-80
2023/04/18 19:30:09;;;;;;;;;;;;;;;6.06;32.33;102555.03;10522372;28;19920;-82
2023/04/18 19:35:12;;;;;;;;;;;;;;;5.96;32.65;102555.41;10455710;28;19927;-86
2023/04/18 19:40:14;;;;;;;;;;;;;;;5.90;32.98;102552.66;10479814;28;19964;-80
2023/04/18 19:45:15;;;;;;;;;;;;;;;5.81;33.66;102567.47;10495196;28;19935;-80
2023/04/18 19:50:18;;;;;;;;;;;;;;;5.73;33.33;102563.88;10485746;28;19926;-84
2023/04/18 19:55:20;;;;;;;;;;;;;;;5.66;34.19;102570.31;10522576;28;19934;-78
2023/04/18 20:00:22;;;;;;;;;;;;;;;5.69;34.30;102561.75;10503519;28;20039;-81
2023/04/18 20:05:24;;;;;;;;;;;;;;;5.62;34.68;102569.06;10523091;28;19923;-82
2023/04/18 20:10:26;;;;;;;;;;;;;;;5.61;35.15;102568.22;10514980;28;20049;-79
2023/04/18 20:15:28;;;;;;;;;;;;;;;5.55;35.23;102574.44;10499562;28;19920;-78
2023/04/18 20:20:31;;;;;;;;;;;;;;;5.52;35.49;102579.44;10513123;28;19920;-79
2023/04/18 20:25:33;;;;;;;;;;;;;;;5.30;36.02;102582.25;10539545;28;19926;-77
2023/04/18 20:30:35;;;;;;;;;;;;;;;5.20;36.31;102575.47;10504002;28;20019;-84
2023/04/18 20:35:43;;;;;;;;;;;;;;;5.23;36.91;102591.41;10512049;28;19921;-82
2023/04/18 20:40:46;;;;;;;;;;;;;;;5.19;37.14;102601.00;10479703;28;20153;-81
2023/04/18 20:45:50;;;;;;;;;;;;;;;5.10;37.22;102595.72;10511742;28;19920;-79
2023/04/18 20:50:52;;;;;;;;;;;;;;;5.05;37.45;102600.91;10487327;28;19919;-79
2023/04/18 20:56:00;;;;;;;;;;;;;;;5.00;37.89;102605.25;10543307;28;20596;-83
2023/04/18 21:01:01;;;;;;;;;;;;;;;5.05;37.86;102613.69;10530151;28;19920;-80
2023/04/18 21:06:03;;;;;;;;;;;;;;;4.93;38.41;102612.50;10513836;28;20091;-80
2023/04/18 21:11:06;;;;;;;;;;;;;;;4.81;39.03;102623.91;10533356;28;20387;-82
2023/04/18 21:16:11;;;;;;;;;;;;;;;4.80;39.37;102618.66;10479564;28;19920;-79
2023/04/18 21:21:13;;;;;;;;;;;;;;;4.77;39.54;102621.78;10499521;28;19942;-83
2023/04/18 21:26:15;;;;;;;;;;;;;;;4.75;39.39;102621.97;10510943;28;19924;-80
2023/04/18 21:31:17;;;;;;;;;;;;;;;4.78;39.69;102620.75;10514541;28;19920;-80
2023/04/18 21:36:22;;;;;;;;;;;;;;;4.86;39.80;102631.50;10482079;28;19920;-81
2023/04/18 21:41:24;;;;;;;;;;;;;;;4.91;39.77;102634.47;10533389;28;19920;-82
2023/04/18 21:46:26;;;;;;;;;;;;;;;4.79;40.03;102627.84;10491106;28;19942;-82
2023/04/18 21:51:28;;;;;;;;;;;;;;;4.74;40.30;102638.50;10515387;28;19926;-80
2023/04/18 21:56:30;;;;;;;;;;;;;;;4.77;40.38;102633.50;10510922;28;19919;-81
2023/04/18 22:01:33;;;;;;;;;;;;;;;4.71;40.50;102634.28;10551760;28;19920;-82
2023/04/18 22:06:35;;;;;;;;;;;;;;;4.52;41.23;102643.91;10457755;28;19932;-81
2023/04/18 22:11:37;;;;;;;;;;;;;;;4.47;41.61;102642.78;10506298;28;19922;-80
2023/04/18 22:16:39;;;;;;;;;;;;;;;4.32;42.13;102648.25;10573394;28;20299;-82
2023/04/18 22:21:41;;;;;;;;;;;;;;;4.17;42.54;102650.16;10526397;28;20299;-81
2023/04/18 22:26:43;;;;;;;;;;;;;;;4.02;43.13;102660.22;10542489;28;20340;-81
2023/04/18 22:31:45;;;;;;;;;;;;;;;3.89;43.45;102661.69;10555360;28;19924;-79
2023/04/18 22:36:46;;;;;;;;;;;;;;;3.74;43.88;102658.13;10522283;28;19920;-79
2023/04/18 22:41:48;;;;;;;;;;;;;;;3.62;44.09;102663.16;10513379;28;19925;-79
2023/04/18 22:46:53;;;;;;;;;;;;;;;3.68;45.04;102664.31;10512706;28;19991;-82
2023/04/18 22:51:55;;;;;;;;;;;;;;;3.65;44.98;102648.41;10498277;28;20333;-79
2023/04/18 22:56:57;;;;;;;;;;;;;;;3.72;44.90;102657.47;10513029;28;19927;-80
2023/04/18 23:01:59;;;;;;;;;;;;;;;3.68;45.25;102652.63;10571320;28;20041;-78
2023/04/18 23:07:01;;;;;;;;;;;;;;;3.75;45.86;102653.53;10571973;28;19920;-79
2023/04/18 23:12:03;;;;;;;;;;;;;;;3.83;45.89;102651.59;10495771;28;19998;-79
2023/04/18 23:17:05;;;;;;;;;;;;;;;3.78;46.16;102648.59;10529597;28;19924;-81
2023/04/18 23:22:07;;;;;;;;;;;;;;;3.81;45.96;102656.34;10529172;28;19920;-79
2023/04/18 23:27:09;;;;;;;;;;;;;;;3.64;47.10;102652.13;10530085;28;20396;-78
2023/04/18 23:32:10;;;;;;;;;;;;;;;3.75;46.47;102664.41;10525039;28;19920;-82
2023/04/18 23:37:12;;;;;;;;;;;;;;;3.61;47.02;102647.06;10547891;28;19920;-80
2023/04/18 23:42:15;;;;;;;;;;;;;;;3.61;47.17;102652.50;10556023;28;19928;-81
2023/04/18 23:47:17;;;;;;;;;;;;;;;3.53;47.39;102647.19;10530751;28;19920;-80
2023/04/18 23:52:19;;;;;;;;;;;;;;;3.52;47.71;102648.19;10521707;28;19923;-82
2023/04/18 23:57:21;;;;;;;;;;;;;;;3.57;47.72;102643.88;10499675;28;19927;-82
